WetterOnline ( https://www.wetteronline.de )

Wetter aktuell PLZ Bereich 25524

Aktuelles Wetter: Quickborn (17m)

6-stündlich | Neueste Meldungen
Ortszeit Temperatur Wetter
Do, 17.10. 14:00 15.2° C bewölkt
Do, 17.10. 8:00 13.3° C bedeckt
Do, 17.10. 2:00 13.3° C bewölkt
Mi, 16.10. 20:00 9.7° C wolkenlos
Mi, 16.10. 14:00 13.1° C leichter Regen
Mi, 16.10. 8:00 13.3° C leichter Regen
Mi, 16.10. 2:00 12.3° C bedeckt
Di, 15.10. 20:00 13.6° C Nebel
Ortszeit Temperatur Wetter
Do, 17.10. 19:30 13.3° C bedeckt
Do, 17.10. 19:20 13.3° C bedeckt
Do, 17.10. 19:10 13.2° C bedeckt
Do, 17.10. 19:00 13.5° C bedeckt
Do, 17.10. 18:50 13.5° C bedeckt
Do, 17.10. 18:40 13.6° C bewölkt
Do, 17.10. 18:30 13.8° C bedeckt
Do, 17.10. 18:00 14.0° C bedeckt
Do, 17.10. 17:30 14.2° C bedeckt
Do, 17.10. 17:00 14.3° C bedeckt
Do, 17.10. 16:30 14.2° C bedeckt
Ortszeit Relative Feuchte Sichtweite
Do, 17.10. 14:00 90% 23 km
Do, 17.10. 8:00 97% 3.5 km
Do, 17.10. 2:00 92% 24 km
Mi, 16.10. 20:00 98% 1.5 km
Mi, 16.10. 14:00 94% 14 km
Mi, 16.10. 8:00 98% 5.0 km
Mi, 16.10. 2:00 99% 3.6 km
Di, 15.10. 20:00 99% 100 m
Ortszeit Relative Feuchte Sichtweite
Do, 17.10. 19:30 97% 15 km
Do, 17.10. 19:20 97% -
Do, 17.10. 19:10 97% -
Do, 17.10. 19:00 95% 27 km
Do, 17.10. 18:50 95% -
Do, 17.10. 18:40 95% -
Do, 17.10. 18:30 95% 30 km
Do, 17.10. 18:00 94% 45 km
Do, 17.10. 17:30 92% 40 km
Do, 17.10. 17:00 92% 35 km
Do, 17.10. 16:30 92% 35 km
Ortszeit Niederschlagsmenge Niederschlagsart
Do, 17.10. 14:00 0.2 l/m2 in 6 Std. Regen
Do, 17.10. 8:00 3 l/m2 in 12 Std. Regen
Do, 17.10. 2:00 0.1 l/m2 in 6 Std. Sprühregen
Mi, 16.10. 20:00 4 l/m2 in 12 Std. Regen
Mi, 16.10. 14:00 4 l/m2 in 6 Std. Regen
Mi, 16.10. 8:00 20 l/m2 in 12 Std. Regen
Mi, 16.10. 2:00 0.0 l/m2 in 6 Std. -
Di, 15.10. 20:00 0.0 l/m2 in 12 Std. -
Ortszeit Niederschlagsmenge Niederschlagsart
Do, 17.10. 19:30 0.0 l/m2 in 1 Std. -
Do, 17.10. 19:20 keine Meldung -
Do, 17.10. 19:10 keine Meldung -
Do, 17.10. 19:00 0.0 l/m2 in 1 Std. -
Do, 17.10. 18:50 keine Meldung -
Do, 17.10. 18:40 keine Meldung -
Do, 17.10. 18:30 0.0 l/m2 in 1 Std. -
Do, 17.10. 18:00 0.0 l/m2 in 1 Std. -
Do, 17.10. 17:30 0.0 l/m2 in 1 Std. -
Do, 17.10. 17:00 0.0 l/m2 in 1 Std. Regen
Do, 17.10. 16:30 0.0 l/m2 in 1 Std. -
Ortszeit Stärke Spitze Richtung
km/h Bft. km/h Grad Sektor
Do, 17.10. 14:00 13 3 26 220° SW
Do, 17.10. 8:00 11 2 25 190° S
Do, 17.10. 2:00 13 3 26 180° S
Mi, 16.10. 20:00 4 1 25 160° S
Mi, 16.10. 14:00 9 2 24 260° W
Mi, 16.10. 8:00 9 2 20 260° W
Mi, 16.10. 2:00 4 1 7 300° NW
Di, 15.10. 20:00 0 0 14 - -
Ortszeit Stärke Spitze Richtung
km/h Bft. km/h Grad Sektor
Do, 17.10. 19:30 4 1 7 190° S
Do, 17.10. 19:20 4 1 - 190° S
Do, 17.10. 19:10 4 1 - 120° SO
Do, 17.10. 19:00 4 1 7 150° SO
Do, 17.10. 18:50 4 1 - 150° SO
Do, 17.10. 18:40 2 1 - 200° S
Do, 17.10. 18:30 4 1 7 140° SO
Do, 17.10. 18:00 6 1 7 180° S
Do, 17.10. 17:30 4 1 7 200° S
Do, 17.10. 17:00 6 1 7 210° SW
Do, 17.10. 16:30 4 1 7 210° SW
Ortszeit Untergrenze Bedeckung Gattung
total tief tief mittel hoch
Do, 17.10. 14:00 330 m 7/8 7/8 - - -
Do, 17.10. 8:00 180 m 8/8 8/8 - - -
Do, 17.10. 2:00 270 m 7/8 7/8 - - -
Mi, 16.10. 20:00 - 0/8 0/8 - - -
Mi, 16.10. 14:00 240 m 8/8 8/8 - - -
Mi, 16.10. 8:00 90 m 8/8 8/8 - - -
Mi, 16.10. 2:00 60 m 8/8 8/8 - - -
Di, 15.10. 20:00 2700 m 7/8 7/8 - - -
Ortszeit Bedeckungsgrad in Achtel und Wolkenuntergrenze
Do, 17.10. 19:30 5(1290m) 7(1500m) 8(1800m)
Do, 17.10. 19:20 5(1290m) 7(1500m) 8(1800m)
Do, 17.10. 19:10 7(1320m) 7(1500m) 8(1800m)
Do, 17.10. 19:00 8(1380m)
Do, 17.10. 18:50 8(1380m)
Do, 17.10. 18:40 7(1380m)
Do, 17.10. 18:30 7(1380m) 8(1500m)
Do, 17.10. 18:00 8(1350m) 8(1500m)
Do, 17.10. 17:30 8(1320m) 8(2100m)
Do, 17.10. 17:00 4(270m) 6(1500m) 8(2100m)
Do, 17.10. 16:30 1(120m) 8(2100m)
Ortszeit Luftdruck NN (hPa) Tendenz (hPa in 3 Std.)
Do, 17.10. 14:00 1009 + 0,6
Do, 17.10. 8:00 1007 + 0,1
Do, 17.10. 2:00 1008 - 0,6
Mi, 16.10. 20:00 1009 + 0,6
Mi, 16.10. 14:00 1008 + 0,9
Mi, 16.10. 8:00 1006 + 0,2
Mi, 16.10. 2:00 1006 - 0,2
Di, 15.10. 20:00 1006 + 0,6
Ortszeit Luftdruck NN (hPa) Tendenz (hPa in 3 Std.)
Do, 17.10. 19:30 1011 + 0,5
Do, 17.10. 19:20 1011 keine Meldung
Do, 17.10. 19:10 1011 keine Meldung
Do, 17.10. 19:00 1011 + 0,7
Do, 17.10. 18:50 1011 keine Meldung
Do, 17.10. 18:40 1011 keine Meldung
Do, 17.10. 18:30 1011 + 0,6
Do, 17.10. 18:00 1011 + 0,4
Do, 17.10. 17:30 1011 + 0,9
Do, 17.10. 17:00 1011 + 1,2
Do, 17.10. 16:30 1010 + 1,0
Ortszeit Schneehöhe (cm)
Do, 17.10. 14:00 0
Do, 17.10. 8:00 0
Do, 17.10. 2:00 0
Mi, 16.10. 20:00 0
Mi, 16.10. 14:00 0
Mi, 16.10. 8:00 0
Mi, 16.10. 2:00 0
Di, 15.10. 20:00 0
Ortszeit Schneehöhe (cm)
Do, 17.10. 19:30 0
Do, 17.10. 19:20 0
Do, 17.10. 19:10 0
Do, 17.10. 19:00 0
Do, 17.10. 18:50 0
Do, 17.10. 18:40 0
Do, 17.10. 18:30 0
Do, 17.10. 18:00 0
Do, 17.10. 17:30 0
Do, 17.10. 17:00 0
Do, 17.10. 16:30 0
Link zu dieser Seite / Seite empfehlen

Das Wetter in ...